Clover Valley, Nevada Weather observations

Data are for 10 minute period ending at time listed.
 Day   Time   Solar   Ave.   Ave.  Ave.  Vector  Max.   Baro.   Total    
  of    of     Rad.   Air    Rel.  Wind   Wind   Wind  Press.  Precip.   
Year   Day            Temp.  Hum.  Speed  Dir.   Gust                    
2016   (PST)  Kw/m2    F      %     mph   deg.    mph    mb.     in.     
-------------------------------------------------------------------------
 344   14:20   0.16   41.6    61   12.2   147    16.7   827.4    0.00 
 344   14:30   0.16   41.5    60   13.3   140    17.2   827.3    0.00 
 344   14:40   0.13   41.3    61   12.8   140    17.8   827.2    0.00 
 344   14:50   0.15   40.8    63   12.7   134    16.3   827.0    0.00 
 344   15:00   0.12   40.4    64   11.3   136    15.8   827.0    0.00 
 344   15:10   0.09   40.1    64   12.7   139    17.4   827.0    0.00 
 344   15:20   0.08   39.9    63   12.9   140    15.4   827.0    0.00 
 344   15:30   0.06   39.4    63   13.2   132    17.9   826.9    0.00 
 344   15:40   0.03   39.2    62   12.0   135    19.0   826.9    0.00 
 344   15:50   0.03   39.1    62   12.7   130    15.9   826.8    0.00 
 344   16:00   0.02   38.3    65   11.6   132    14.8   826.7    0.00 
 344   16:10   0.01   37.5    67    9.8   144    12.9   826.8    0.00 
 344   16:20   0.00   37.3    67   10.3   138    13.2   826.8    0.00 
 344   16:30   0.00   37.0    68   11.5   136    15.6   826.8    0.00 
 344   16:40   0.00   37.3    67   12.4   137    15.5   826.8    0.00 
 344   16:50   0.00   37.6    66   11.9   139    15.8   826.7    0.00 
 344   17:00   0.00   37.3    66   10.9   145    15.3   826.7    0.00 
 344   17:10   0.00   37.5    66   12.0   143    16.7   826.6    0.00 
 344   17:20   0.00   37.8    65   12.5   144    16.3   826.5    0.00 
 344   17:30   0.00   37.7    65    9.7   147    13.8   826.6    0.00 
 344   17:40   0.00   37.6    65    7.9   147    10.8   826.8    0.00 
 344   17:50   0.00   37.4    66    7.5   141    10.2   826.7    0.00 
 344   18:00   0.00   37.6    65   10.6   139    15.3   826.6    0.00 
 344   18:10   0.00   38.4    62   10.7   135    17.4   826.5    0.00 
 344   18:20   0.00   38.5    62    9.3   151    14.5   826.4    0.00 
 344   18:30   0.00   38.6    62   11.1   146    19.1   826.3    0.00 
 344   18:40   0.00   39.5    59   11.1   152    15.9   826.3    0.00 
 344   18:50   0.00   39.0    61    7.5   148    12.8   826.4    0.00 
 344   19:00   0.00   38.6    62    9.6   138    14.0   826.3    0.00 
 344   19:10   0.00   37.9    64    9.7   140    12.7   826.2    0.00 
 344   19:20   0.00   37.8    65   10.5   149    14.8   825.9    0.00 
 344   19:30   0.00   37.5    65   11.0   144    14.1   826.0    0.00 
 344   19:40   0.00   37.3    66    9.8   147    13.2   826.0    0.00 
 344   19:50   0.00   37.7    65   11.6   144    15.4   825.8    0.00 
 344   20:00   0.00   38.1    64   10.6   145    13.7   826.1    0.00 
 344   20:10   0.00   38.2    64   10.2   145    14.4   826.0    0.00 
 344   20:20   0.00   38.4    63   11.7   147    16.4   825.8    0.00 
 344   20:30   0.00   38.9    62   12.8   144    18.1   825.5    0.00 
 344   20:40   0.00   38.5    63   10.7   148    15.5   825.7    0.00 
 344   20:50   0.00   38.3    63   10.6   140    14.1   825.9    0.00 
 344   21:00   0.00   38.1    64   11.8   132    20.0   825.9    0.00 
 344   21:10   0.00   37.9    64   14.9   140    20.7   825.6    0.00 
 344   21:20   0.00   37.9    63   16.0   151    21.1   825.4    0.00 
 344   21:30   0.00   37.9    63   14.3   156    20.3   825.5    0.00 
 344   21:40   0.00   37.5    64   12.6   148    17.2   825.5    0.00 
 344   21:50   0.00   37.5    64   14.5   140    19.4   825.3    0.00 
 344   22:00   0.00   37.3    65   17.4   134    25.9   825.1    0.00 
 344   22:10   0.00   37.2    65   14.7   128    20.1   825.4    0.00 
 344   22:20   0.00   37.7    63   10.9   135    24.7   825.7    0.00 
 344   22:30   0.00   37.7    63    9.0   149    18.3   825.6    0.00 
 344   22:40   0.00   37.7    63   13.0   136    20.9   825.5    0.00 
 344   22:50   0.00   38.1    63   12.6   146    18.6   825.6    0.00 
 344   23:00   0.00   38.2    62   16.2   134    23.2   825.4    0.00 
 344   23:10   0.00   39.1    60   14.9   137    24.3   825.4    0.00 
 344   23:20   0.00   38.3    63   11.3   150    20.5   825.3    0.00 
 344   23:30   0.00   38.0    64   10.3   137    16.4   825.1    0.00 
 344   23:40   0.00   37.5    65   13.5   136    25.0   825.1    0.00 
 344   23:50   0.00   37.3    66   12.8   132    17.8   825.1    0.00 
 345    0:00   0.00   37.5    65   12.7   146    19.1   824.9    0.00 
 345    0:10   0.00   37.2    67   13.8   144    21.3   824.6    0.00 
 345    0:20   0.00   37.5    65   12.8   151    18.0   824.5    0.00 
 345    0:30   0.00   37.1    66   12.8   147    18.5   824.5    0.00 
 345    0:40   0.00   36.8    67   12.8   137    16.6   824.4    0.00 
 345    0:50   0.00   36.9    67   12.9   136    18.3   824.1    0.00 
 345    1:00   0.00   37.1    67   11.8   158    17.8   824.1    0.00 
 345    1:10   0.00   37.3    67    9.8   170    15.2   824.2    0.00 
 345    1:20   0.00   38.2    65   10.4   175    18.5   824.1    0.00 
 345    1:30   0.00   39.0    63    7.7   171    17.4   824.1    0.00 
 345    1:40   0.00   38.2    64    5.0   144    14.2   824.1    0.00 
 345    1:50   0.00   37.0    67    6.0   140    11.6   824.0    0.00 
 345    2:00   0.00   36.9    67    9.2   137    18.2   823.8    0.00 
 345    2:10   0.00   37.2    66    8.8   160    18.0   823.7    0.00 
 345    2:20   0.00   38.2    63   10.1   153    19.8   823.6    0.00 
 345    2:30   0.00   39.3    60   13.5   130    23.8   823.3    0.00 
 345    2:40   0.00   39.2    60   13.4   125    24.1   823.2    0.00 
 345    2:50   0.00   38.7    62   10.1   158    15.8   823.5    0.00 
 345    3:00   0.00   38.2    64    8.5   162    13.7   823.6    0.00 
 345    3:10   0.00   38.8    69   10.2   203    18.3   823.9    0.00 
 345    3:20   0.00   39.6    73   12.9   220    20.0   824.0    0.01 
 345    3:30   0.00   38.4    80   12.2   215    17.6   824.0    0.00 
 345    3:40   0.00   37.9    83   12.2   209    19.2   823.8    0.00 
 345    3:50   0.00   37.7    84   11.1   203    16.9   823.6    0.00 
 345    4:00   0.00   37.7    85   10.7   206    15.9   823.5    0.01 
 345    4:10   0.00   38.2    84   10.5   215    15.6   823.5    0.00 
 345    4:20   0.00   38.2    84    9.7   217    13.4   823.4    0.00 
 345    4:30   0.00   38.1    84    9.9   214    15.9   823.2    0.00 
 345    4:40   0.00   38.1    84   10.5   217    17.0   823.1    0.01 
 345    4:50   0.00   38.2    83    8.1   218    14.1   823.0    0.00 
 345    5:00   0.00   37.6    85    6.0   184     9.0   822.9    0.00 
 345    5:10   0.00   37.1    86    4.7   164     6.9   822.8    0.00 
 345    5:20   0.00   36.1    89    6.2   149    10.0   822.7    0.01 
 345    5:30   0.00   35.7    92    8.6   147    13.2   822.6    0.00 
 345    5:40   0.00   36.5    90    9.8   142    13.7   822.5    0.00 
 345    5:50   0.00   35.6    91    8.3   139    10.4   822.6    0.00 
 345    6:00   0.00   35.4    92    8.5   147    11.5   822.5    0.01 
 345    6:10   0.00   35.8    93   10.3   168    14.5   822.5    0.00 
 345    6:20   0.00   36.0    91   11.8   179    15.1   822.4    0.01 
 345    6:30   0.00   35.9    91   14.3   183    18.3   822.2    0.01 
 345    6:40   0.00   36.0    90   14.4   193    18.6   822.2    0.01 
 345    6:50   0.00   36.0    90   12.6   199    16.4   822.1    0.01 
 345    7:00   0.00   35.9    90   11.8   200    15.9   822.1    0.00 
 345    7:10   0.00   36.0    90   11.3   208    15.4   822.2    0.01 
 345    7:20   0.00   36.1    91   11.4   209    16.1   822.3    0.02 
 345    7:30   0.01   36.2    91   13.4   204    17.9   822.2    0.01 
 345    7:40   0.01   36.1    91   12.2   203    17.0   822.2    0.02 
 345    7:50   0.01   36.0    92   11.9   205    17.0   822.2    0.01 
 345    8:00   0.01   36.3    92   13.3   203    19.9   822.3    0.01 
 345    8:10   0.02   36.7    91   13.5   208    17.5   822.3    0.02 
 345    8:20   0.02   37.0    91   11.8   206    17.0   822.4    0.01 
 345    8:30   0.02   37.0    91   10.8   198    15.8   822.4    0.02 
 345    8:40   0.03   37.2    91   11.8   195    15.3   822.5    0.01 
 345    8:50   0.03   37.4    91   10.6   197    18.2   822.5    0.01 
 345    9:00   0.04   37.9    91   10.8   197    15.0   822.5    0.01 
 345    9:10   0.04   38.4    91   10.8   206    16.4   822.6    0.01 
 345    9:20   0.05   39.0    90   10.8   208    15.2   822.7    0.02 
 345    9:30   0.06   39.2    90    9.8   203    12.9   822.7    0.01 
 345    9:40   0.09   39.8    88    9.6   198    17.5   822.6    0.01 
 345    9:50   0.12   40.1    88    8.7   194    13.3   822.6    0.01 
 345   10:00   0.12   40.3    88    4.6   188     9.1   822.6    0.00 
 345   10:10   0.11   40.6    88    5.8   198     9.6   822.6    0.01 
 345   10:20   0.11   40.6    88    6.9   180    12.7   822.4    0.01 
 345   10:30   0.12   41.2    88    6.0   207    10.8   822.3    0.01 
 345   10:40   0.12   40.4    87    5.3   135    12.0   822.3    0.01 
 345   10:50   0.12   41.2    87    6.9   239    13.0   822.1    0.00 
 345   11:00   0.12   42.2    84    9.4   231    18.3   821.9    0.01 
 345   11:10   0.11   42.2    84    5.3   215    11.5   821.8    0.01 
 345   11:20   0.11   42.3    84    2.8   246     7.3   821.6    0.00 
 345   11:30   0.12   42.6    83    4.5   244     9.1   821.4    0.01 
 345   11:40   0.14   42.4    84    4.5   218     9.6   821.3    0.00 
 345   11:50   0.10   42.4    84    6.8   264    15.0   821.2    0.01 
 345   12:00   0.11   42.3    84    9.5   245    13.7   821.1    0.01 
 345   12:10   0.12   43.0    81   13.4   245    23.2   820.9    0.01 
 345   12:20   0.09   42.9    81   13.2   241    21.0   820.9    0.00 
 345   12:30   0.09   42.4    82   14.4   230    26.5   820.8    0.01 
 345   12:40   0.08   41.9    84   11.0   238    16.4   820.8    0.01 
 345   12:50   0.07   41.3    84   11.1   243    16.5   820.8    0.01 
 345   13:00   0.07   41.2    84    9.9   232    16.9   820.7    0.01 
 345   13:10   0.07   41.2    84    8.5   220    15.7   820.6    0.00 
 345   13:20   0.06   41.0    86    7.5   204    12.3   820.5    0.01 
 345   13:30   0.04   40.5    88    5.8   156     8.6   820.5    0.01 
 345   13:40   0.04   40.1    91    4.4   147     6.4   820.5    0.01 
 345   13:50   0.03   39.7    92    5.5   124     7.8   820.5    0.01 
 345   14:00   0.02   39.6    92    5.9   149    10.7   820.7    0.01 
 345   14:10   0.02   39.5    92    4.2   149     8.5   820.9    0.02 

Return to Clover Valley graphs page.


Western Regional Climate Center,wrcc@dri.edu